Tor Futura — OZZE2 — position and weather

sailwx.info

Track history (hours):
 
Tides and Currents Weather Stations Pressure Air Temp Water Temp Dewpoint Dewpoint Depression Visibility Wind Speed Wind Dir Waves Ship Positions

Tor Futura

Last reported at 2015-Jan-26 19:22 UTC. Time now 2015-Jan-29 14:28 UTC.
Position N 10°01' W 018°23'.

Length 183.1 m; beam 25.2 m; draft 7.8 m.

Type: Cargo ship. MMSI: 219927000.

Date/timePositionNaut miles runAvg speedWind from/ knotsBaromVisibWave heightAir tempDewpointWater temp
2015-Jan-26 19:22N 10°01' W 018°23'5417.3
2015-Jan-26 16:14N 09°15' W 017°54'1617.4
2015-Jan-26 15:20N 09°01' W 017°45'183 9.2
2015-Jan-25 19:24N 08°54' W 014°40'8 9.9
2015-Jan-25 18:33N 08°58' W 014°32'10 9.9
2015-Jan-25 17:33N 09°02' W 014°23'1110.5
2015-Jan-25 16:33N 09°07' W 014°14'1110.9
2015-Jan-25 15:34N 09°12' W 014°04'1111.1
2015-Jan-25 14:33N 09°17' W 013°54'1110.9
2015-Jan-25 13:33N 09°23' W 013°44'8 7.9
2015-Jan-25 12:32N 09°31' W 013°43'0 0.0
2015-Jan-25 11:32N 09°31' W 013°43'0 0.0
2015-Jan-25 10:32N 09°31' W 013°43'0 0.0
2015-Jan-25 09:32N 09°31' W 013°43'2 2.0
2015-Jan-25 08:33N 09°29' W 013°44'6 5.9
2015-Jan-25 07:34N 09°23' W 013°44'1414.5
2015-Jan-25 06:34N 09°16' W 013°57'1414.4
2015-Jan-25 05:33N 09°09' W 014°10'1514.6
2015-Jan-25 04:33N 09°02' W 014°23'1414.1
2015-Jan-25 03:34N 08°51' W 014°32'1514.6
2015-Jan-25 02:34N 08°38' W 014°39'1514.7
2015-Jan-25 01:34N 08°26' W 014°47'2914.5
2015-Jan-24 23:34N 07°60' W 014°60'27 9.1
2015-Jan-24 20:33N 07°32' W 014°59'9 8.7
2015-Jan-24 19:33N 07°27' W 014°52'9 8.8
2015-Jan-24 18:33N 07°22' W 014°45'  
2015-Jan-19 20:20N 08°26' W 013°36'23 7.4
2015-Jan-19 17:15N 08°30' W 013°13'66 5.4
2015-Jan-19 05:08N 08°18' W 014°18'1117.2
2015-Jan-19 04:30N 08°16' W 014°29'1616.9
2015-Jan-19 03:33N 08°12' W 014°45'1717.3
2015-Jan-19 02:33N 08°09' W 015°02'6916.8
2015-Jan-18 22:27N 07°55' W 016°10'5015.8
2015-Jan-18 19:19N 08°03' W 016°59'1317.3
2015-Jan-18 18:33N 08°11' W 017°10'1717.2
2015-Jan-18 17:33N 08°21' W 017°24'1717.4
2015-Jan-18 16:34N 08°32' W 017°38'1817.6
2015-Jan-18 15:33N 08°43' W 017°52'1717.5
2015-Jan-18 14:34N 08°53' W 018°06'5817.5
2015-Jan-18 11:15N 09°30' W 018°51'  
Track history (hours):
 
Tides and Currents Weather Stations Pressure Air Temp Water Temp Dewpoint Dewpoint Depression Visibility Wind Speed Wind Dir Waves Ship Positions

Tor Futura

Last reported at 2015-Jan-26 19:22 UTC. Time now 2015-Jan-29 14:28 UTC.
Position N 10°01' W 018°23'.

Length 183.1 m; beam 25.2 m; draft 7.8 m.

Type: Cargo ship. MMSI: 219927000.

Date/timePositionNaut miles runAvg speedWind from/ knotsBaromVisibWave heightAir tempDewpointWater temp
2015-Jan-26 19:22N 10°01' W 018°23'5417.3
2015-Jan-26 16:14N 09°15' W 017°54'1617.4
2015-Jan-26 15:20N 09°01' W 017°45'183 9.2
2015-Jan-25 19:24N 08°54' W 014°40'8 9.9
2015-Jan-25 18:33N 08°58' W 014°32'10 9.9
2015-Jan-25 17:33N 09°02' W 014°23'1110.5
2015-Jan-25 16:33N 09°07' W 014°14'1110.9
2015-Jan-25 15:34N 09°12' W 014°04'1111.1
2015-Jan-25 14:33N 09°17' W 013°54'1110.9
2015-Jan-25 13:33N 09°23' W 013°44'8 7.9
2015-Jan-25 12:32N 09°31' W 013°43'0 0.0
2015-Jan-25 11:32N 09°31' W 013°43'0 0.0
2015-Jan-25 10:32N 09°31' W 013°43'0 0.0
2015-Jan-25 09:32N 09°31' W 013°43'2 2.0
2015-Jan-25 08:33N 09°29' W 013°44'6 5.9
2015-Jan-25 07:34N 09°23' W 013°44'1414.5
2015-Jan-25 06:34N 09°16' W 013°57'1414.4
2015-Jan-25 05:33N 09°09' W 014°10'1514.6
2015-Jan-25 04:33N 09°02' W 014°23'1414.1
2015-Jan-25 03:34N 08°51' W 014°32'1514.6
2015-Jan-25 02:34N 08°38' W 014°39'1514.7
2015-Jan-25 01:34N 08°26' W 014°47'2914.5
2015-Jan-24 23:34N 07°60' W 014°60'27 9.1
2015-Jan-24 20:33N 07°32' W 014°59'9 8.7
2015-Jan-24 19:33N 07°27' W 014°52'9 8.8
2015-Jan-24 18:33N 07°22' W 014°45'  
2015-Jan-19 20:20N 08°26' W 013°36'23 7.4
2015-Jan-19 17:15N 08°30' W 013°13'66 5.4
2015-Jan-19 05:08N 08°18' W 014°18'1117.2
2015-Jan-19 04:30N 08°16' W 014°29'1616.9
2015-Jan-19 03:33N 08°12' W 014°45'1717.3
2015-Jan-19 02:33N 08°09' W 015°02'6916.8
2015-Jan-18 22:27N 07°55' W 016°10'5015.8
2015-Jan-18 19:19N 08°03' W 016°59'1317.3
2015-Jan-18 18:33N 08°11' W 017°10'1717.2
2015-Jan-18 17:33N 08°21' W 017°24'1717.4
2015-Jan-18 16:34N 08°32' W 017°38'1817.6
2015-Jan-18 15:33N 08°43' W 017°52'1717.5
2015-Jan-18 14:34N 08°53' W 018°06'5817.5
2015-Jan-18 11:15N 09°30' W 018°51'  

Dump ship's entire track history